Time;durP1;ratioP1;P1;durP2;ratioP2;P2;SDS_P1;SDS_P2;PMS_P1;PMS_P2;Temp;Humidity;BMP_temperature;BMP_pressure;BME280_temperature;BME280_humidity;BME280_pressure;Samples;Min_cycle;Max_cycle;Signal;HPM_P1;HPM_P2
2024/01/10 00:01:36;;;;;;;;;;;0.00;99.90;;;;;;5024009;28;19933;-81
2024/01/10 00:04:02;;;;;;;;;;;0.00;99.90;;;;;;5027229;28;20005;-82
2024/01/10 00:06:28;;;;;;;;;;;-0.10;99.90;;;;;;5028180;28;20353;-82
2024/01/10 00:08:53;;;;;;;;;;;-0.10;99.90;;;;;;5027174;28;19979;-81
2024/01/10 00:11:19;;;;;;;;;;;-0.10;99.90;;;;;;5020505;28;19983;-82
2024/01/10 00:13:44;;;;;;;;;;;-0.20;99.90;;;;;;5011913;28;20395;-82
2024/01/10 00:16:11;;;;;;;;;;;-0.20;99.90;;;;;;5021057;28;20377;-80
2024/01/10 00:18:37;;;;;;;;;;;-0.20;99.90;;;;;;5023790;28;19913;-82
2024/01/10 00:21:02;;;;;;;;;;;-0.20;99.90;;;;;;5027839;28;19944;-82
2024/01/10 00:23:28;;;;;;;;;;;-0.30;99.90;;;;;;5031050;28;19981;-81
2024/01/10 00:25:54;;;;;;;;;;;-0.40;99.90;;;;;;5028650;28;19917;-82
2024/01/10 00:28:19;;;;;;;;;;;-0.30;99.90;;;;;;5024525;28;19928;-80
2024/01/10 00:30:47;;;;;;;;;;;-0.30;99.90;;;;;;5028278;28;19929;-80
2024/01/10 00:33:13;;;;;;;;;;;-0.30;99.90;;;;;;5029665;28;19923;-82
2024/01/10 00:35:38;;;;;;;;;;;-0.30;99.90;;;;;;5025322;28;20031;-79
2024/01/10 00:38:04;;;;;;;;;;;-0.40;99.90;;;;;;5028597;28;19942;-82
2024/01/10 00:40:29;;;;;;;;;;;-0.50;99.90;;;;;;5027585;28;20388;-82
2024/01/10 00:42:55;;;;;;;;;;;-0.50;99.90;;;;;;5022040;28;20392;-81
2024/01/10 00:45:20;;;;;;;;;;;-0.60;99.90;;;;;;5028242;28;19943;-81
2024/01/10 00:47:49;;;;;;;;;;;-0.60;99.90;;;;;;5033530;28;19929;-82
2024/01/10 00:50:14;;;;;;;;;;;-0.70;99.90;;;;;;5027727;28;19913;-82
2024/01/10 00:52:40;;;;;;;;;;;-0.70;99.90;;;;;;5026702;28;20414;-82
2024/01/10 00:55:07;;;;;;;;;;;-0.70;99.90;;;;;;5006076;28;19970;-81
2024/01/10 00:57:32;;;;;;;;;;;-0.80;99.90;;;;;;5028824;28;19931;-81
2024/01/10 00:59:58;;;;;;;;;;;-0.80;99.90;;;;;;5026930;28;19949;-82
2024/01/10 01:02:23;;;;;;;;;;;-0.80;99.90;;;;;;5029831;28;20008;-81
2024/01/10 01:04:49;;;;;;;;;;;-0.90;99.90;;;;;;5043135;28;19945;-80
2024/01/10 01:07:14;;;;;;;;;;;-0.90;99.90;;;;;;5043031;28;20308;-79
2024/01/10 01:09:40;;;;;;;;;;;-1.00;99.90;;;;;;5041723;28;19954;-81
2024/01/10 01:12:05;;;;;;;;;;;-1.00;99.90;;;;;;5039586;28;19934;-80
2024/01/10 01:14:31;;;;;;;;;;;-1.00;99.90;;;;;;5048579;28;20045;-80
2024/01/10 01:16:56;;;;;;;;;;;-1.00;99.90;;;;;;5055926;28;19936;-81
2024/01/10 01:19:22;;;;;;;;;;;-1.00;99.90;;;;;;5049755;28;19993;-81
2024/01/10 01:21:47;;;;;;;;;;;-1.00;99.90;;;;;;5042330;28;20436;-81
2024/01/10 01:24:13;;;;;;;;;;;-1.00;99.90;;;;;;5024142;28;19917;-81
2024/01/10 01:26:38;;;;;;;;;;;-1.10;99.90;;;;;;5029560;28;19943;-82
2024/01/10 01:29:04;;;;;;;;;;;-1.10;99.90;;;;;;5028002;28;19931;-81
2024/01/10 01:31:30;;;;;;;;;;;-1.10;99.90;;;;;;5022447;28;19939;-81
2024/01/10 01:33:55;;;;;;;;;;;-1.10;99.90;;;;;;5027632;28;19934;-81
2024/01/10 01:36:21;;;;;;;;;;;-1.10;99.90;;;;;;5026580;28;19945;-81
2024/01/10 01:38:46;;;;;;;;;;;-1.10;99.90;;;;;;5026431;28;20015;-81
2024/01/10 01:41:14;;;;;;;;;;;-1.10;99.90;;;;;;5025124;28;19974;-81
2024/01/10 01:43:39;;;;;;;;;;;-1.20;99.90;;;;;;5021201;28;20028;-81
2024/01/10 01:46:05;;;;;;;;;;;-1.20;99.90;;;;;;5024443;28;20049;-81
2024/01/10 01:48:30;;;;;;;;;;;-1.30;99.90;;;;;;5025873;28;20277;-81
2024/01/10 01:50:58;;;;;;;;;;;-1.40;99.90;;;;;;5029162;28;19925;-81
2024/01/10 01:53:23;;;;;;;;;;;-1.40;99.90;;;;;;5031797;28;19938;-81
2024/01/10 01:55:49;;;;;;;;;;;-1.30;99.90;;;;;;5025619;28;19957;-81
2024/01/10 01:58:15;;;;;;;;;;;-1.30;99.90;;;;;;5030654;28;19992;-81
2024/01/10 02:00:41;;;;;;;;;;;-1.30;99.90;;;;;;5030668;28;19965;-81
2024/01/10 02:03:08;;;;;;;;;;;-1.30;99.90;;;;;;5021365;28;20033;-81
2024/01/10 02:05:34;;;;;;;;;;;-1.30;99.90;;;;;;5031950;28;19943;-81
2024/01/10 02:07:59;;;;;;;;;;;-1.30;99.90;;;;;;5028435;28;19924;-81
2024/01/10 02:10:25;;;;;;;;;;;-1.20;99.90;;;;;;5026580;28;19928;-81
2024/01/10 02:12:50;;;;;;;;;;;-1.30;99.90;;;;;;5021719;28;19993;-81
2024/01/10 02:15:16;;;;;;;;;;;-1.30;99.90;;;;;;5023772;28;19977;-81
2024/01/10 02:17:42;;;;;;;;;;;-1.30;99.90;;;;;;5023556;28;19935;-81
2024/01/10 02:20:11;;;;;;;;;;;-1.30;99.90;;;;;;5028799;28;19939;-80
2024/01/10 02:22:37;;;;;;;;;;;-1.30;99.90;;;;;;5028595;28;19955;-80
2024/01/10 02:25:07;;;;;;;;;;;-1.30;99.90;;;;;;5031407;28;19933;-80
2024/01/10 02:27:33;;;;;;;;;;;-1.30;99.90;;;;;;5030700;28;19964;-80
2024/01/10 02:29:59;;;;;;;;;;;-1.20;99.90;;;;;;5028549;28;20026;-80
2024/01/10 02:32:24;;;;;;;;;;;-1.20;99.90;;;;;;5025501;28;20028;-80
2024/01/10 02:34:50;;;;;;;;;;;-1.30;99.90;;;;;;5029910;28;19926;-80
2024/01/10 02:37:16;;;;;;;;;;;-1.30;99.90;;;;;;5020997;28;19937;-80
2024/01/10 02:39:41;;;;;;;;;;;-1.30;99.90;;;;;;5020298;28;19951;-80
2024/01/10 02:42:07;;;;;;;;;;;-1.30;99.90;;;;;;5023044;28;19954;-80
2024/01/10 02:44:32;;;;;;;;;;;-1.30;99.90;;;;;;5023403;28;20379;-81
2024/01/10 02:46:58;;;;;;;;;;;-1.40;99.90;;;;;;5026816;28;20377;-80
2024/01/10 02:49:24;;;;;;;;;;;-1.40;99.90;;;;;;5025682;28;19943;-80
2024/01/10 02:51:49;;;;;;;;;;;-1.40;99.90;;;;;;5028331;28;19928;-80
2024/01/10 02:54:15;;;;;;;;;;;-1.40;99.90;;;;;;5014863;28;20465;-80
2024/01/10 02:56:40;;;;;;;;;;;-1.40;99.90;;;;;;5001871;28;19917;-80
2024/01/10 02:59:05;;;;;;;;;;;-1.40;99.90;;;;;;5003351;28;19954;-80
2024/01/10 03:01:31;;;;;;;;;;;-1.40;99.90;;;;;;4996903;28;20024;-80
2024/01/10 03:03:57;;;;;;;;;;;-1.40;99.90;;;;;;5001118;28;19967;-80
2024/01/10 03:06:22;;;;;;;;;;;-1.50;99.90;;;;;;5003506;28;19953;-80
2024/01/10 03:08:48;;;;;;;;;;;-1.50;99.90;;;;;;5008717;28;19970;-79
2024/01/10 03:11:14;;;;;;;;;;;-1.50;99.90;;;;;;5004016;28;19934;-79
2024/01/10 03:13:40;;;;;;;;;;;-1.50;99.90;;;;;;5002834;28;19905;-80
2024/01/10 03:16:05;;;;;;;;;;;-1.50;99.90;;;;;;5011200;28;20023;-80
2024/01/10 03:18:31;;;;;;;;;;;-1.60;99.90;;;;;;5020850;28;19944;-79
2024/01/10 03:20:57;;;;;;;;;;;-1.60;99.90;;;;;;5027220;28;19953;-80
2024/01/10 03:23:22;;;;;;;;;;;-1.70;99.90;;;;;;5023548;28;19951;-79
2024/01/10 03:25:49;;;;;;;;;;;-1.70;99.90;;;;;;5012589;28;19946;-80
2024/01/10 03:28:17;;;;;;;;;;;-1.70;99.90;;;;;;5007589;28;19935;-80
2024/01/10 03:30:43;;;;;;;;;;;-1.70;99.90;;;;;;5006629;28;19921;-80
2024/01/10 03:33:08;;;;;;;;;;;-1.80;99.90;;;;;;5000555;28;20017;-79
2024/01/10 03:35:34;;;;;;;;;;;-1.90;99.90;;;;;;4999336;28;19949;-79
2024/01/10 03:38:00;;;;;;;;;;;-1.90;99.90;;;;;;5000717;28;19924;-78
2024/01/10 03:40:26;;;;;;;;;;;-1.90;99.90;;;;;;5004881;28;20190;-78
2024/01/10 03:42:53;;;;;;;;;;;-1.90;99.90;;;;;;5002919;28;20413;-78
2024/01/10 03:45:22;;;;;;;;;;;-1.90;99.90;;;;;;4996261;28;19985;-80
2024/01/10 03:47:49;;;;;;;;;;;-1.90;99.90;;;;;;4995719;28;19939;-80
2024/01/10 03:50:16;;;;;;;;;;;-1.90;99.90;;;;;;5001653;28;19926;-81
2024/01/10 03:52:42;;;;;;;;;;;-2.00;99.90;;;;;;5004823;28;20409;-78
2024/01/10 03:55:08;;;;;;;;;;;-2.00;99.90;;;;;;5030463;28;19962;-78
2024/01/10 03:57:34;;;;;;;;;;;-2.00;99.90;;;;;;5041378;28;20021;-79
2024/01/10 04:00:00;;;;;;;;;;;-2.00;99.90;;;;;;5038988;28;19988;-80
2024/01/10 04:02:26;;;;;;;;;;;-2.00;99.90;;;;;;5038276;28;20667;-80
2024/01/10 04:04:52;;;;;;;;;;;-2.00;99.90;;;;;;5027766;28;19971;-80
2024/01/10 04:07:17;;;;;;;;;;;-2.10;99.90;;;;;;5028473;28;20381;-79
2024/01/10 04:09:43;;;;;;;;;;;-2.00;99.90;;;;;;5023977;28;19951;-79
2024/01/10 04:12:08;;;;;;;;;;;-2.00;99.90;;;;;;5022088;28;20375;-79
2024/01/10 04:14:34;;;;;;;;;;;-2.10;99.90;;;;;;5024120;28;19924;-80
2024/01/10 04:17:01;;;;;;;;;;;-2.00;99.90;;;;;;5028649;28;19933;-79
2024/01/10 04:19:26;;;;;;;;;;;-2.00;99.90;;;;;;5024736;28;20471;-79
2024/01/10 04:21:52;;;;;;;;;;;-2.00;99.90;;;;;;5021768;28;19930;-80
2024/01/10 04:24:17;;;;;;;;;;;-1.90;99.90;;;;;;5030805;28;19936;-80
2024/01/10 04:26:43;;;;;;;;;;;-1.90;99.90;;;;;;5022021;28;20344;-79
2024/01/10 04:29:08;;;;;;;;;;;-1.90;99.90;;;;;;5027777;28;19932;-79
2024/01/10 04:31:35;;;;;;;;;;;-1.90;99.90;;;;;;5020552;28;20027;-79
2024/01/10 04:34:01;;;;;;;;;;;-1.90;99.90;;;;;;5023716;28;20298;-79
2024/01/10 04:36:28;;;;;;;;;;;-1.90;99.90;;;;;;5024419;28;20435;-79
2024/01/10 04:38:54;;;;;;;;;;;-1.80;99.90;;;;;;5027218;28;20055;-78
2024/01/10 04:41:19;;;;;;;;;;;-1.80;99.90;;;;;;5025429;28;19966;-78
2024/01/10 04:43:45;;;;;;;;;;;-1.80;99.90;;;;;;5029090;28;19934;-79
2024/01/10 04:46:10;;;;;;;;;;;-1.70;99.90;;;;;;5024554;28;20295;-79
2024/01/10 04:48:36;;;;;;;;;;;-1.70;99.90;;;;;;5034507;28;20052;-79
2024/01/10 04:51:02;;;;;;;;;;;-1.80;99.90;;;;;;5026318;28;19960;-79
2024/01/10 04:53:28;;;;;;;;;;;-1.70;99.90;;;;;;5023714;28;19942;-79
2024/01/10 04:55:53;;;;;;;;;;;-1.70;99.90;;;;;;5025613;28;19960;-79
2024/01/10 04:58:19;;;;;;;;;;;-1.70;99.90;;;;;;5023689;28;20397;-79
2024/01/10 05:00:44;;;;;;;;;;;-1.70;99.90;;;;;;5029682;28;20349;-79
2024/01/10 05:03:11;;;;;;;;;;;-1.60;99.90;;;;;;5036163;28;19925;-78
2024/01/10 05:05:36;;;;;;;;;;;-1.70;99.90;;;;;;5038579;28;19957;-80
2024/01/10 05:08:02;;;;;;;;;;;-1.60;99.90;;;;;;5038186;28;20408;-79
2024/01/10 05:10:27;;;;;;;;;;;-1.70;99.90;;;;;;5036170;28;19942;-78
2024/01/10 05:12:53;;;;;;;;;;;-1.60;99.90;;;;;;5033136;28;19966;-79
2024/01/10 05:15:19;;;;;;;;;;;-1.60;99.90;;;;;;5027534;28;19934;-79
2024/01/10 05:17:44;;;;;;;;;;;-1.60;99.90;;;;;;5032753;28;20244;-79
2024/01/10 05:20:10;;;;;;;;;;;-1.60;99.90;;;;;;5030012;28;20312;-79
2024/01/10 05:22:35;;;;;;;;;;;-1.60;99.90;;;;;;5042042;28;19991;-80
2024/01/10 05:25:01;;;;;;;;;;;-1.60;99.90;;;;;;5043578;28;19924;-78
2024/01/10 05:27:27;;;;;;;;;;;-1.60;99.90;;;;;;5042328;28;20177;-79
2024/01/10 05:29:52;;;;;;;;;;;-1.60;99.90;;;;;;5047250;28;20017;-80
2024/01/10 05:32:18;;;;;;;;;;;-1.60;99.90;;;;;;5038681;28;19944;-80
2024/01/10 05:34:44;;;;;;;;;;;-1.60;99.90;;;;;;5032434;28;19975;-80
2024/01/10 05:37:09;;;;;;;;;;;-1.60;99.90;;;;;;5031051;28;19940;-79
2024/01/10 05:39:35;;;;;;;;;;;-1.60;99.90;;;;;;5029879;28;20024;-79
2024/01/10 05:42:02;;;;;;;;;;;-1.60;99.90;;;;;;5022881;28;20367;-79
2024/01/10 05:44:29;;;;;;;;;;;-1.60;99.90;;;;;;5024753;28;19970;-80
2024/01/10 05:46:54;;;;;;;;;;;-1.60;99.90;;;;;;5020946;28;19965;-80
2024/01/10 05:49:22;;;;;;;;;;;-1.60;99.90;;;;;;5023800;28;20365;-79
2024/01/10 05:51:47;;;;;;;;;;;-1.70;99.90;;;;;;5027431;28;19942;-79
2024/01/10 05:54:13;;;;;;;;;;;-1.70;99.90;;;;;;5027477;28;19954;-79
2024/01/10 05:56:38;;;;;;;;;;;-1.70;99.90;;;;;;5028258;28;20373;-79
2024/01/10 05:59:03;;;;;;;;;;;-1.80;99.90;;;;;;5028026;28;19932;-79
2024/01/10 06:01:29;;;;;;;;;;;-1.80;99.90;;;;;;5026531;28;19925;-79
2024/01/10 06:03:54;;;;;;;;;;;-1.90;99.90;;;;;;5027403;28;19931;-79
2024/01/10 06:06:20;;;;;;;;;;;-2.10;99.90;;;;;;5026095;28;20012;-79
2024/01/10 06:08:45;;;;;;;;;;;-2.20;99.90;;;;;;5030257;28;20012;-79
2024/01/10 06:11:11;;;;;;;;;;;-2.30;99.90;;;;;;5027253;28;19933;-79
2024/01/10 06:13:37;;;;;;;;;;;-2.20;99.90;;;;;;5025688;28;19965;-79
2024/01/10 06:16:03;;;;;;;;;;;-2.20;99.90;;;;;;5026249;28;20688;-79
2024/01/10 06:18:28;;;;;;;;;;;-2.30;99.90;;;;;;5023859;28;19936;-79
2024/01/10 06:20:54;;;;;;;;;;;-2.40;99.90;;;;;;5024700;28;20312;-79
2024/01/10 06:23:19;;;;;;;;;;;-2.40;99.90;;;;;;5026802;28;19929;-79
2024/01/10 06:25:45;;;;;;;;;;;-2.50;99.90;;;;;;5018718;28;20428;-79
2024/01/10 06:28:10;;;;;;;;;;;-2.70;99.90;;;;;;5027564;28;19924;-79
2024/01/10 06:30:36;;;;;;;;;;;-2.70;99.90;;;;;;5027832;28;20014;-79
2024/01/10 06:33:02;;;;;;;;;;;-2.70;99.90;;;;;;5028319;28;19964;-80
2024/01/10 06:35:27;;;;;;;;;;;-2.60;99.90;;;;;;5024569;28;20437;-80
2024/01/10 06:37:53;;;;;;;;;;;-2.70;99.90;;;;;;5025708;28;20371;-79
2024/01/10 06:40:20;;;;;;;;;;;-3.00;99.90;;;;;;5021740;28;19971;-79
2024/01/10 06:42:47;;;;;;;;;;;-3.00;99.90;;;;;;5023943;28;19921;-80
2024/01/10 06:45:13;;;;;;;;;;;-3.10;99.90;;;;;;5026004;28;19959;-81
2024/01/10 06:47:39;;;;;;;;;;;-3.10;99.90;;;;;;5022054;28;19924;-80
2024/01/10 06:50:05;;;;;;;;;;;-3.00;99.90;;;;;;5028995;28;19929;-79
2024/01/10 06:52:31;;;;;;;;;;;-3.00;99.90;;;;;;5025589;28;19928;-79
2024/01/10 06:54:57;;;;;;;;;;;-2.90;99.90;;;;;;5027701;28;19962;-79
2024/01/10 06:57:22;;;;;;;;;;;-2.80;99.90;;;;;;5030876;28;20495;-79
2024/01/10 06:59:48;;;;;;;;;;;-2.60;99.90;;;;;;5024737;28;20350;-79
2024/01/10 07:02:14;;;;;;;;;;;-2.60;99.90;;;;;;5027432;28;19934;-79
2024/01/10 07:04:40;;;;;;;;;;;-2.60;99.90;;;;;;5029532;28;19972;-79
2024/01/10 07:07:08;;;;;;;;;;;-2.50;99.90;;;;;;5021219;28;20270;-79
2024/01/10 07:09:33;;;;;;;;;;;-2.40;99.90;;;;;;5024720;28;19916;-80
2024/01/10 07:11:59;;;;;;;;;;;-2.40;99.90;;;;;;5030223;28;20255;-79
2024/01/10 07:14:25;;;;;;;;;;;-2.30;99.90;;;;;;5023325;28;20441;-80
2024/01/10 07:16:51;;;;;;;;;;;-2.20;99.90;;;;;;5025036;28;19998;-81
2024/01/10 07:19:17;;;;;;;;;;;-2.10;99.90;;;;;;5024864;28;20042;-81
2024/01/10 07:21:43;;;;;;;;;;;-2.00;99.90;;;;;;5021874;28;20025;-80
2024/01/10 07:24:09;;;;;;;;;;;-2.00;99.90;;;;;;5026735;28;19955;-80
2024/01/10 07:26:35;;;;;;;;;;;-2.00;99.90;;;;;;5026087;28;19939;-80
2024/01/10 07:29:02;;;;;;;;;;;-2.00;99.90;;;;;;5037502;28;19941;-80
2024/01/10 07:31:29;;;;;;;;;;;-1.90;99.90;;;;;;5043555;28;20021;-80
2024/01/10 07:33:56;;;;;;;;;;;-1.80;99.90;;;;;;5045809;28;19993;-80
2024/01/10 07:36:23;;;;;;;;;;;-1.60;99.90;;;;;;5049697;28;19949;-80
2024/01/10 07:38:50;;;;;;;;;;;-1.50;99.90;;;;;;5027501;28;20022;-79
2024/01/10 07:41:15;;;;;;;;;;;-1.50;99.90;;;;;;5025175;28;20029;-79
2024/01/10 07:43:41;;;;;;;;;;;-1.50;99.90;;;;;;5026293;28;20011;-80
2024/01/10 07:46:06;;;;;;;;;;;-1.40;99.90;;;;;;5027251;28;19990;-79
2024/01/10 07:48:32;;;;;;;;;;;-1.30;99.90;;;;;;5030507;28;19936;-80
2024/01/10 07:50:58;;;;;;;;;;;-1.20;99.90;;;;;;5026981;28;19984;-79
2024/01/10 07:53:26;;;;;;;;;;;-1.10;99.90;;;;;;5022010;28;19993;-80
2024/01/10 07:55:52;;;;;;;;;;;-1.00;99.90;;;;;;5021526;28;19956;-79
2024/01/10 07:58:17;;;;;;;;;;;-0.90;99.90;;;;;;5023506;28;19909;-80
2024/01/10 08:00:43;;;;;;;;;;;-0.80;99.90;;;;;;5021469;28;19917;-82
2024/01/10 08:03:10;;;;;;;;;;;-0.80;99.90;;;;;;5011298;28;19937;-81
2024/01/10 08:05:35;;;;;;;;;;;-0.80;99.90;;;;;;5014711;28;20114;-79
2024/01/10 08:08:01;;;;;;;;;;;-0.70;99.90;;;;;;5022781;28;19996;-80
2024/01/10 08:10:27;;;;;;;;;;;-0.80;99.90;;;;;;5014408;28;19945;-81
2024/01/10 08:12:53;;;;;;;;;;;-0.80;99.90;;;;;;5011631;28;20518;-79
2024/01/10 08:15:19;;;;;;;;;;;-0.80;99.90;;;;;;5011460;28;19922;-80
2024/01/10 08:17:45;;;;;;;;;;;-0.80;99.90;;;;;;5015498;28;19929;-78
2024/01/10 08:20:11;;;;;;;;;;;-0.90;99.90;;;;;;5014056;28;20395;-81
2024/01/10 08:22:37;;;;;;;;;;;-0.80;99.90;;;;;;5018438;28;19934;-81
2024/01/10 08:25:03;;;;;;;;;;;-0.80;99.90;;;;;;5014504;28;19929;-80
2024/01/10 08:27:28;;;;;;;;;;;-0.90;99.90;;;;;;5015017;28;19930;-80
2024/01/10 08:29:54;;;;;;;;;;;-0.80;99.90;;;;;;5014708;28;19948;-82
2024/01/10 08:32:21;;;;;;;;;;;-0.70;99.90;;;;;;5013983;28;20010;-81
2024/01/10 08:34:48;;;;;;;;;;;-0.70;99.90;;;;;;5021544;28;20768;-81
2024/01/10 08:37:14;;;;;;;;;;;-0.60;99.90;;;;;;5025983;28;19934;-81
2024/01/10 08:39:40;;;;;;;;;;;-0.60;99.90;;;;;;5022784;28;20002;-81
2024/01/10 08:42:05;;;;;;;;;;;-0.60;99.90;;;;;;5020565;28;19932;-79
2024/01/10 08:44:31;;;;;;;;;;;-0.50;99.90;;;;;;5018007;28;19926;-82
2024/01/10 08:46:57;;;;;;;;;;;-0.50;99.90;;;;;;5019685;28;20009;-83
2024/01/10 08:49:22;;;;;;;;;;;-0.30;99.90;;;;;;5016579;28;19919;-82
2024/01/10 08:51:49;;;;;;;;;;;-0.30;99.90;;;;;;5018684;28;20339;-84
2024/01/10 08:54:16;;;;;;;;;;;-0.20;99.90;;;;;;5024078;28;19954;-82
2024/01/10 08:56:44;;;;;;;;;;;-0.10;99.90;;;;;;5014182;28;19935;-84
2024/01/10 08:59:11;;;;;;;;;;;0.00;99.90;;;;;;5020310;28;20030;-80
2024/01/10 09:01:38;;;;;;;;;;;0.10;99.90;;;;;;5017859;28;19935;-84
2024/01/10 09:04:04;;;;;;;;;;;0.20;99.90;;;;;;5021177;28;20400;-84
2024/01/10 09:06:31;;;;;;;;;;;0.40;99.90;;;;;;5024252;28;19948;-82
2024/01/10 09:08:56;;;;;;;;;;;0.50;99.90;;;;;;5022650;28;19927;-84
2024/01/10 09:11:22;;;;;;;;;;;0.60;99.90;;;;;;5017358;28;19926;-83
2024/01/10 09:13:48;;;;;;;;;;;0.80;99.90;;;;;;5017219;28;20377;-81
2024/01/10 09:16:13;;;;;;;;;;;0.90;99.90;;;;;;5022756;28;19982;-82
2024/01/10 09:18:39;;;;;;;;;;;1.00;99.90;;;;;;5019904;28;20033;-84
2024/01/10 09:21:05;;;;;;;;;;;1.10;99.90;;;;;;5013704;28;20973;-83
2024/01/10 09:23:30;;;;;;;;;;;1.30;99.90;;;;;;5022469;28;19930;-82
2024/01/10 09:25:56;;;;;;;;;;;1.40;99.90;;;;;;5021289;28;20316;-83
2024/01/10 09:28:22;;;;;;;;;;;1.60;99.90;;;;;;5021129;28;19934;-83
2024/01/10 09:30:47;;;;;;;;;;;1.90;99.90;;;;;;5024084;28;19940;-80
2024/01/10 09:33:13;;;;;;;;;;;3.40;99.90;;;;;;5013400;28;19935;-83
2024/01/10 09:35:39;;;;;;;;;;;5.50;99.90;;;;;;5021312;28;19976;-82
2024/01/10 09:38:04;;;;;;;;;;;7.30;97.10;;;;;;5027139;28;19938;-82
2024/01/10 09:40:31;;;;;;;;;;;8.70;77.00;;;;;;5030009;28;19935;-80
2024/01/10 09:42:57;;;;;;;;;;;9.90;62.30;;;;;;5036153;28;19927;-86
2024/01/10 09:45:23;;;;;;;;;;;11.00;56.10;;;;;;5043853;28;19960;-83
2024/01/10 09:47:51;;;;;;;;;;;11.80;52.20;;;;;;5043074;28;20335;-85
2024/01/10 09:50:17;;;;;;;;;;;12.60;49.00;;;;;;5039205;28;19949;-85
2024/01/10 09:53:01;;;;;;;;;;;13.30;47.20;;;;;;5028457;28;19937;-80
2024/01/10 09:55:29;;;;;;;;;;;14.00;45.10;;;;;;5020366;28;20001;-81
2024/01/10 09:57:54;;;;;;;;;;;14.40;43.30;;;;;;5022349;28;20340;-82
2024/01/10 10:00:20;;;;;;;;;;;14.80;42.10;;;;;;5015492;28;19960;-83
2024/01/10 10:02:45;;;;;;;;;;;15.30;41.40;;;;;;5013691;28;20025;-83
2024/01/10 10:05:15;;;;;;;;;;;15.70;40.60;;;;;;5014542;28;20313;-82
2024/01/10 10:07:49;;;;;;;;;;;16.50;38.80;;;;;;5018457;28;20070;-81
2024/01/10 10:10:15;;;;;;;;;;;16.50;38.00;;;;;;5017482;28;19935;-83
2024/01/10 10:12:42;;;;;;;;;;;16.80;38.40;;;;;;5015163;28;21259;-82
2024/01/10 10:15:16;;;;;;;;;;;17.20;36.90;;;;;;5018854;28;20439;-82
2024/01/10 10:17:47;;;;;;;;;;;17.10;36.60;;;;;;5013627;28;19928;-82
2024/01/10 10:20:14;;;;;;;;;;;17.10;37.10;;;;;;5018418;28;19950;-87
2024/01/10 10:22:40;;;;;;;;;;;17.10;36.60;;;;;;5017253;28;20294;-83
2024/01/10 10:25:06;;;;;;;;;;;16.90;37.70;;;;;;5012352;28;19926;-83
2024/01/10 10:27:32;;;;;;;;;;;17.20;37.00;;;;;;5010947;28;20330;-84
2024/01/10 10:29:57;;;;;;;;;;;17.50;36.80;;;;;;5013611;28;20721;-88
2024/01/10 10:32:23;;;;;;;;;;;18.00;35.70;;;;;;5015605;28;19926;-84
2024/01/10 10:34:56;;;;;;;;;;;18.30;35.00;;;;;;5014773;28;19936;-84
2024/01/10 10:37:21;;;;;;;;;;;18.40;35.10;;;;;;5011801;28;20036;-84
2024/01/10 10:39:50;;;;;;;;;;;18.90;34.50;;;;;;5020632;28;19956;-84
2024/01/10 10:42:39;;;;;;;;;;;19.00;33.90;;;;;;5011737;28;20450;-84
2024/01/10 10:45:11;;;;;;;;;;;19.20;33.70;;;;;;5012111;28;19935;-84
2024/01/10 10:47:38;;;;;;;;;;;19.70;32.90;;;;;;5018140;28;20196;-85
2024/01/10 10:50:05;;;;;;;;;;;20.00;32.10;;;;;;5014196;28;19970;-88
2024/01/10 10:52:31;;;;;;;;;;;20.10;32.00;;;;;;5014739;28;20385;-87
2024/01/10 10:54:58;;;;;;;;;;;20.30;31.70;;;;;;5019176;28;19950;-88
2024/01/10 10:57:25;;;;;;;;;;;20.70;31.20;;;;;;5014604;28;19991;-88
2024/01/10 10:59:52;;;;;;;;;;;21.00;30.40;;;;;;5014521;28;19959;-85
2024/01/10 11:02:22;;;;;;;;;;;21.00;30.70;;;;;;5014364;28;19936;-88
2024/01/10 11:04:48;;;;;;;;;;;21.30;30.20;;;;;;5011841;28;20353;-87
2024/01/10 11:07:13;;;;;;;;;;;21.50;29.70;;;;;;5036893;28;19915;-84
2024/01/10 11:09:39;;;;;;;;;;;21.40;29.70;;;;;;5043563;28;19981;-88
2024/01/10 11:12:14;;;;;;;;;;;21.40;29.90;;;;;;5043418;28;19922;-87
2024/01/10 11:15:02;;;;;;;;;;;21.60;29.60;;;;;;5029051;28;19935;-88
2024/01/10 11:17:39;;;;;;;;;;;21.70;29.50;;;;;;5019485;28;19944;-87
2024/01/10 11:20:16;;;;;;;;;;;21.70;29.50;;;;;;5015575;28;20581;-88
2024/01/10 11:23:02;;;;;;;;;;;21.80;29.50;;;;;;5016661;28;19984;-90
2024/01/10 11:25:29;;;;;;;;;;;21.30;29.40;;;;;;5001636;28;19985;-82
2024/01/10 11:27:55;;;;;;;;;;;21.50;29.70;;;;;;5005834;28;19982;-85
2024/01/10 11:30:37;;;;;;;;;;;21.90;29.00;;;;;;5019077;28;19933;-87
2024/01/10 11:33:23;;;;;;;;;;;22.10;29.10;;;;;;5043224;28;19943;-89
2024/01/10 11:36:09;;;;;;;;;;;22.10;29.00;;;;;;5014306;28;20460;-87
2024/01/10 11:38:44;;;;;;;;;;;22.00;28.30;;;;;;5014607;28;19964;-90
2024/01/10 11:41:14;;;;;;;;;;;22.00;29.30;;;;;;5023572;28;20049;-86
2024/01/10 11:43:40;;;;;;;;;;;21.50;29.50;;;;;;5031408;28;19935;-86
2024/01/10 11:46:06;;;;;;;;;;;21.80;29.40;;;;;;5030365;28;20020;-88
2024/01/10 11:48:32;;;;;;;;;;;21.40;29.50;;;;;;5038605;28;19936;-87
2024/01/10 11:51:00;;;;;;;;;;;21.50;29.40;;;;;;5042475;28;19988;-89
2024/01/10 11:53:45;;;;;;;;;;;21.50;29.00;;;;;;5033935;28;19929;-89
2024/01/10 11:56:15;;;;;;;;;;;21.70;29.80;;;;;;5018586;28;19942;-89
2024/01/10 11:59:00;;;;;;;;;;;21.80;29.00;;;;;;5015332;28;19935;-88
2024/01/10 12:01:27;;;;;;;;;;;21.80;29.50;;;;;;4982954;28;20357;-86
2024/01/10 12:03:53;;;;;;;;;;;21.60;28.80;;;;;;5014790;28;20330;-91
2024/01/10 12:06:21;;;;;;;;;;;21.20;30.20;;;;;;5012125;28;19980;-89
2024/01/10 12:08:46;;;;;;;;;;;21.30;29.90;;;;;;5010234;28;19933;-89
2024/01/10 12:11:12;;;;;;;;;;;21.50;29.70;;;;;;5014583;28;20430;-86
2024/01/10 12:13:40;;;;;;;;;;;22.20;29.30;;;;;;5009888;28;20777;-91
2024/01/10 12:16:06;;;;;;;;;;;22.30;28.40;;;;;;5013206;28;19957;-90
2024/01/10 12:18:31;;;;;;;;;;;21.80;28.50;;;;;;5016387;28;19946;-88
2024/01/10 12:20:57;;;;;;;;;;;21.60;29.00;;;;;;5017191;28;19975;-87
2024/01/10 12:23:24;;;;;;;;;;;21.60;29.80;;;;;;5020078;28;19927;-86
2024/01/10 12:25:50;;;;;;;;;;;22.20;29.10;;;;;;5016531;28;19957;-84
2024/01/10 12:28:19;;;;;;;;;;;22.20;28.70;;;;;;5015119;28;20723;-88
2024/01/10 12:30:44;;;;;;;;;;;22.10;28.50;;;;;;5019137;28;20025;-89
2024/01/10 12:33:10;;;;;;;;;;;22.20;28.80;;;;;;5015691;28;20097;-89
2024/01/10 12:35:37;;;;;;;;;;;22.30;28.30;;;;;;5015117;28;19931;-90
2024/01/10 12:38:10;;;;;;;;;;;22.10;29.20;;;;;;5015074;28;19944;-90
2024/01/10 12:40:36;;;;;;;;;;;22.50;28.40;;;;;;5015773;28;19941;-88
2024/01/10 12:43:03;;;;;;;;;;;22.50;28.70;;;;;;5013312;28;20209;-86
2024/01/10 13:43:49;;;;;;;;;;;21.70;29.10;;;;;;5400692;22;19955;-88
2024/01/10 13:46:16;;;;;;;;;;;22.10;27.80;;;;;;5065164;28;19920;-89
2024/01/10 13:48:42;;;;;;;;;;;23.00;27.90;;;;;;5063855;28;19930;-93
2024/01/10 13:51:09;;;;;;;;;;;23.00;26.90;;;;;;5059931;28;19940;-92
2024/01/10 13:53:36;;;;;;;;;;;22.60;26.10;;;;;;5059802;28;19926;-90
2024/01/10 13:56:01;;;;;;;;;;;23.00;26.50;;;;;;5050649;28;19948;-86
2024/01/10 13:58:27;;;;;;;;;;;22.90;26.60;;;;;;5031183;28;19936;-88
2024/01/10 14:00:52;;;;;;;;;;;23.30;27.60;;;;;;5034525;28;19959;-85
2024/01/10 14:03:18;;;;;;;;;;;22.80;27.30;;;;;;5034542;28;20014;-84
2024/01/10 14:05:44;;;;;;;;;;;23.00;27.50;;;;;;5032830;28;19974;-85
2024/01/10 14:08:10;;;;;;;;;;;23.60;27.00;;;;;;5032346;28;19944;-84
2024/01/10 14:10:36;;;;;;;;;;;24.50;28.00;;;;;;5031169;28;20308;-85
2024/01/10 14:13:03;;;;;;;;;;;25.20;26.60;;;;;;5030394;28;20356;-85
2024/01/10 14:15:29;;;;;;;;;;;25.30;26.10;;;;;;5025329;28;19946;-83
2024/01/10 14:17:56;;;;;;;;;;;25.70;23.60;;;;;;5030285;28;19936;-84
2024/01/10 14:20:22;;;;;;;;;;;25.10;26.60;;;;;;5025291;28;19941;-81
2024/01/10 14:22:50;;;;;;;;;;;24.40;26.20;;;;;;5014795;28;19941;-84
2024/01/10 14:25:15;;;;;;;;;;;24.30;26.60;;;;;;5027191;28;19943;-84
2024/01/10 14:27:41;;;;;;;;;;;23.80;26.90;;;;;;5027276;28;19918;-87
2024/01/10 14:30:08;;;;;;;;;;;24.90;25.40;;;;;;5031908;28;20957;-82
2024/01/10 14:32:34;;;;;;;;;;;25.10;25.30;;;;;;5029004;28;22039;-83
2024/01/10 14:34:59;;;;;;;;;;;25.10;26.40;;;;;;5034756;28;19943;-88
2024/01/10 14:37:25;;;;;;;;;;;24.50;27.00;;;;;;5028207;28;20365;-84
2024/01/10 14:39:51;;;;;;;;;;;22.10;27.50;;;;;;5029002;28;20059;-82
2024/01/10 14:42:17;;;;;;;;;;;20.30;28.80;;;;;;5030108;28;19926;-85
2024/01/10 14:44:43;;;;;;;;;;;20.50;30.00;;;;;;5029518;28;20411;-84
2024/01/10 14:47:08;;;;;;;;;;;21.20;29.90;;;;;;5029859;28;19923;-84
2024/01/10 14:49:34;;;;;;;;;;;21.40;29.70;;;;;;5029878;28;20437;-80
2024/01/10 14:51:59;;;;;;;;;;;20.80;29.70;;;;;;5027584;28;19975;-79
2024/01/10 14:54:25;;;;;;;;;;;19.70;31.30;;;;;;5036154;28;19973;-80
2024/01/10 14:56:51;;;;;;;;;;;18.80;33.00;;;;;;5048413;28;19953;-82
2024/01/10 14:59:16;;;;;;;;;;;17.00;33.70;;;;;;5053437;28;19920;-85
2024/01/10 15:01:43;;;;;;;;;;;14.90;39.80;;;;;;5052256;28;19941;-89
2024/01/10 15:04:09;;;;;;;;;;;13.70;39.70;;;;;;5023423;28;20032;-83
2024/01/10 15:06:34;;;;;;;;;;;13.00;43.20;;;;;;5023900;28;20370;-81
2024/01/10 15:09:00;;;;;;;;;;;12.50;50.20;;;;;;5028741;28;19978;-81
2024/01/10 15:11:26;;;;;;;;;;;12.40;51.50;;;;;;5031390;28;19931;-84
2024/01/10 15:13:51;;;;;;;;;;;13.10;49.10;;;;;;5032670;28;19963;-84